sensor_id;sensor_type;location;lat;lon;timestamp;pressure;altitude;pressure_sealevel;temperature
15680;BMP180;15488;48.114;11.532;2023-10-08T00:02:10;96177.00;;;24.00
15680;BMP180;15488;48.114;11.532;2023-10-08T00:04:40;96187.00;;;24.00
15680;BMP180;15488;48.114;11.532;2023-10-08T00:07:10;96176.00;;;24.00
15680;BMP180;15488;48.114;11.532;2023-10-08T00:09:38;96165.00;;;24.00
15680;BMP180;15488;48.114;11.532;2023-10-08T00:12:07;96159.00;;;24.00
15680;BMP180;15488;48.114;11.532;2023-10-08T00:14:36;96157.00;;;24.00
15680;BMP180;15488;48.114;11.532;2023-10-08T00:17:11;96143.00;;;24.00
15680;BMP180;15488;48.114;11.532;2023-10-08T00:19:39;96145.00;;;24.00
15680;BMP180;15488;48.114;11.532;2023-10-08T00:22:09;96136.00;;;24.00
15680;BMP180;15488;48.114;11.532;2023-10-08T00:24:39;96141.00;;;24.00
15680;BMP180;15488;48.114;11.532;2023-10-08T00:27:09;96143.00;;;24.00
15680;BMP180;15488;48.114;11.532;2023-10-08T00:29:41;96138.00;;;24.00
15680;BMP180;15488;48.114;11.532;2023-10-08T00:32:09;96134.00;;;23.90
15680;BMP180;15488;48.114;11.532;2023-10-08T00:34:40;96141.00;;;23.90
15680;BMP180;15488;48.114;11.532;2023-10-08T00:37:09;96123.00;;;23.90
15680;BMP180;15488;48.114;11.532;2023-10-08T00:39:40;96120.00;;;24.00
15680;BMP180;15488;48.114;11.532;2023-10-08T00:42:09;96121.00;;;24.00
15680;BMP180;15488;48.114;11.532;2023-10-08T00:44:39;96128.00;;;24.00
15680;BMP180;15488;48.114;11.532;2023-10-08T00:47:15;96127.00;;;24.10
15680;BMP180;15488;48.114;11.532;2023-10-08T00:49:44;96127.00;;;24.10
15680;BMP180;15488;48.114;11.532;2023-10-08T00:52:29;96121.00;;;24.10
15680;BMP180;15488;48.114;11.532;2023-10-08T00:55:04;96123.00;;;24.10
15680;BMP180;15488;48.114;11.532;2023-10-08T00:57:42;96114.00;;;24.10
15680;BMP180;15488;48.114;11.532;2023-10-08T01:00:14;96121.00;;;24.10
15680;BMP180;15488;48.114;11.532;2023-10-08T01:02:49;96117.00;;;24.10
15680;BMP180;15488;48.114;11.532;2023-10-08T01:05:21;96120.00;;;24.20
15680;BMP180;15488;48.114;11.532;2023-10-08T01:08:08;96110.00;;;24.20
15680;BMP180;15488;48.114;11.532;2023-10-08T01:10:38;96107.00;;;24.20
15680;BMP180;15488;48.114;11.532;2023-10-08T01:13:10;96112.00;;;24.20
15680;BMP180;15488;48.114;11.532;2023-10-08T01:15:42;96114.00;;;24.20
15680;BMP180;15488;48.114;11.532;2023-10-08T01:18:11;96113.00;;;24.20
15680;BMP180;15488;48.114;11.532;2023-10-08T01:20:44;96113.00;;;24.30
15680;BMP180;15488;48.114;11.532;2023-10-08T01:23:20;96115.00;;;24.30
15680;BMP180;15488;48.114;11.532;2023-10-08T01:25:49;96118.00;;;24.30
15680;BMP180;15488;48.114;11.532;2023-10-08T01:28:19;96117.00;;;24.30
15680;BMP180;15488;48.114;11.532;2023-10-08T01:30:52;96123.00;;;24.30
15680;BMP180;15488;48.114;11.532;2023-10-08T01:33:21;96114.00;;;24.30
15680;BMP180;15488;48.114;11.532;2023-10-08T01:35:49;96115.00;;;24.40
15680;BMP180;15488;48.114;11.532;2023-10-08T01:38:16;96109.00;;;24.40
15680;BMP180;15488;48.114;11.532;2023-10-08T01:40:51;96109.00;;;24.50
15680;BMP180;15488;48.114;11.532;2023-10-08T01:43:19;96102.00;;;24.50
15680;BMP180;15488;48.114;11.532;2023-10-08T01:45:47;96103.00;;;24.50
15680;BMP180;15488;48.114;11.532;2023-10-08T01:48:17;96107.00;;;24.60
15680;BMP180;15488;48.114;11.532;2023-10-08T01:50:54;96100.00;;;24.60
15680;BMP180;15488;48.114;11.532;2023-10-08T01:53:22;96107.00;;;24.70
15680;BMP180;15488;48.114;11.532;2023-10-08T01:55:51;96102.00;;;24.70
15680;BMP180;15488;48.114;11.532;2023-10-08T01:58:21;96108.00;;;24.70
15680;BMP180;15488;48.114;11.532;2023-10-08T02:00:49;96103.00;;;24.80
15680;BMP180;15488;48.114;11.532;2023-10-08T02:03:18;96098.00;;;24.80
15680;BMP180;15488;48.114;11.532;2023-10-08T02:05:48;96095.00;;;24.80
15680;BMP180;15488;48.114;11.532;2023-10-08T02:08:20;96101.00;;;24.80
15680;BMP180;15488;48.114;11.532;2023-10-08T02:10:47;96092.00;;;24.80
15680;BMP180;15488;48.114;11.532;2023-10-08T02:13:16;96097.00;;;24.90
15680;BMP180;15488;48.114;11.532;2023-10-08T02:15:45;96091.00;;;24.80
15680;BMP180;15488;48.114;11.532;2023-10-08T02:18:13;96094.00;;;24.90
15680;BMP180;15488;48.114;11.532;2023-10-08T02:20:41;96086.00;;;24.90
15680;BMP180;15488;48.114;11.532;2023-10-08T02:23:09;96092.00;;;24.90
15680;BMP180;15488;48.114;11.532;2023-10-08T02:25:38;96081.00;;;24.90
15680;BMP180;15488;48.114;11.532;2023-10-08T02:28:06;96079.00;;;24.90
15680;BMP180;15488;48.114;11.532;2023-10-08T02:30:37;96082.00;;;24.90
15680;BMP180;15488;48.114;11.532;2023-10-08T02:33:05;96083.00;;;25.00
15680;BMP180;15488;48.114;11.532;2023-10-08T02:35:41;96083.00;;;24.90
15680;BMP180;15488;48.114;11.532;2023-10-08T02:38:10;96078.00;;;24.90
15680;BMP180;15488;48.114;11.532;2023-10-08T02:40:39;96078.00;;;25.00
15680;BMP180;15488;48.114;11.532;2023-10-08T02:43:11;96080.00;;;25.00
15680;BMP180;15488;48.114;11.532;2023-10-08T02:45:42;96077.00;;;25.00
15680;BMP180;15488;48.114;11.532;2023-10-08T02:48:13;96074.00;;;25.00
15680;BMP180;15488;48.114;11.532;2023-10-08T02:50:42;96072.00;;;25.00
15680;BMP180;15488;48.114;11.532;2023-10-08T02:53:10;96067.00;;;25.00
15680;BMP180;15488;48.114;11.532;2023-10-08T02:55:38;96075.00;;;24.90
15680;BMP180;15488;48.114;11.532;2023-10-08T02:58:10;96070.00;;;25.00
15680;BMP180;15488;48.114;11.532;2023-10-08T03:00:43;96071.00;;;25.00
15680;BMP180;15488;48.114;11.532;2023-10-08T03:03:13;96066.00;;;25.00
15680;BMP180;15488;48.114;11.532;2023-10-08T03:05:44;96071.00;;;25.00
15680;BMP180;15488;48.114;11.532;2023-10-08T03:08:12;96064.00;;;25.00
15680;BMP180;15488;48.114;11.532;2023-10-08T03:10:45;96056.00;;;25.10
15680;BMP180;15488;48.114;11.532;2023-10-08T03:13:14;96058.00;;;25.10
15680;BMP180;15488;48.114;11.532;2023-10-08T03:15:44;96058.00;;;25.10
15680;BMP180;15488;48.114;11.532;2023-10-08T03:18:24;96064.00;;;25.10
15680;BMP180;15488;48.114;11.532;2023-10-08T03:20:51;96056.00;;;25.10
15680;BMP180;15488;48.114;11.532;2023-10-08T03:23:19;96058.00;;;25.10
15680;BMP180;15488;48.114;11.532;2023-10-08T03:26:01;96055.00;;;25.00
15680;BMP180;15488;48.114;11.532;2023-10-08T03:28:37;96047.00;;;25.00
15680;BMP180;15488;48.114;11.532;2023-10-08T03:31:08;96052.00;;;25.00
15680;BMP180;15488;48.114;11.532;2023-10-08T03:33:43;96049.00;;;25.00
15680;BMP180;15488;48.114;11.532;2023-10-08T03:36:15;96052.00;;;25.00
15680;BMP180;15488;48.114;11.532;2023-10-08T03:38:48;96052.00;;;25.00
15680;BMP180;15488;48.114;11.532;2023-10-08T03:41:21;96045.00;;;25.00
15680;BMP180;15488;48.114;11.532;2023-10-08T03:43:54;96051.00;;;25.00
15680;BMP180;15488;48.114;11.532;2023-10-08T03:46:29;96052.00;;;25.00
15680;BMP180;15488;48.114;11.532;2023-10-08T03:48:57;96050.00;;;25.00
15680;BMP180;15488;48.114;11.532;2023-10-08T03:51:30;96049.00;;;25.10
15680;BMP180;15488;48.114;11.532;2023-10-08T03:54:05;96045.00;;;25.00
15680;BMP180;15488;48.114;11.532;2023-10-08T03:56:47;96049.00;;;25.00
15680;BMP180;15488;48.114;11.532;2023-10-08T03:59:17;96045.00;;;25.00
15680;BMP180;15488;48.114;11.532;2023-10-08T04:01:58;96047.00;;;24.90
15680;BMP180;15488;48.114;11.532;2023-10-08T04:04:33;96043.00;;;24.90
15680;BMP180;15488;48.114;11.532;2023-10-08T04:07:15;96043.00;;;25.00
15680;BMP180;15488;48.114;11.532;2023-10-08T04:09:55;96040.00;;;24.90
15680;BMP180;15488;48.114;11.532;2023-10-08T04:12:43;96041.00;;;25.00
15680;BMP180;15488;48.114;11.532;2023-10-08T04:15:14;96041.00;;;24.90
15680;BMP180;15488;48.114;11.532;2023-10-08T04:17:44;96050.00;;;24.90
15680;BMP180;15488;48.114;11.532;2023-10-08T04:20:12;96051.00;;;25.00
15680;BMP180;15488;48.114;11.532;2023-10-08T04:22:57;96044.00;;;25.00
15680;BMP180;15488;48.114;11.532;2023-10-08T04:25:25;96047.00;;;25.00
15680;BMP180;15488;48.114;11.532;2023-10-08T04:27:54;96055.00;;;25.00
15680;BMP180;15488;48.114;11.532;2023-10-08T04:30:25;96050.00;;;25.10
15680;BMP180;15488;48.114;11.532;2023-10-08T04:33:00;96057.00;;;25.10
15680;BMP180;15488;48.114;11.532;2023-10-08T04:35:33;96052.00;;;25.10
15680;BMP180;15488;48.114;11.532;2023-10-08T04:38:03;96048.00;;;25.10
15680;BMP180;15488;48.114;11.532;2023-10-08T04:40:34;96047.00;;;25.10
15680;BMP180;15488;48.114;11.532;2023-10-08T04:43:14;96040.00;;;25.10
15680;BMP180;15488;48.114;11.532;2023-10-08T04:45:48;96045.00;;;25.10
15680;BMP180;15488;48.114;11.532;2023-10-08T04:48:17;96040.00;;;25.10
15680;BMP180;15488;48.114;11.532;2023-10-08T04:50:47;96042.00;;;25.10
15680;BMP180;15488;48.114;11.532;2023-10-08T04:53:25;96035.00;;;25.10
15680;BMP180;15488;48.114;11.532;2023-10-08T04:55:58;96041.00;;;25.10
15680;BMP180;15488;48.114;11.532;2023-10-08T04:58:28;96049.00;;;25.10
15680;BMP180;15488;48.114;11.532;2023-10-08T05:01:02;96045.00;;;25.10
15680;BMP180;15488;48.114;11.532;2023-10-08T05:03:46;96049.00;;;25.10
15680;BMP180;15488;48.114;11.532;2023-10-08T05:06:34;96057.00;;;25.20
15680;BMP180;15488;48.114;11.532;2023-10-08T05:09:27;96053.00;;;25.20
15680;BMP180;15488;48.114;11.532;2023-10-08T05:12:11;96059.00;;;25.20
15680;BMP180;15488;48.114;11.532;2023-10-08T05:14:56;96065.00;;;25.20
15680;BMP180;15488;48.114;11.532;2023-10-08T05:17:44;96060.00;;;25.20
15680;BMP180;15488;48.114;11.532;2023-10-08T05:20:25;96057.00;;;25.20
15680;BMP180;15488;48.114;11.532;2023-10-08T05:23:11;96065.00;;;25.20
15680;BMP180;15488;48.114;11.532;2023-10-08T05:25:59;96068.00;;;25.20
15680;BMP180;15488;48.114;11.532;2023-10-08T05:28:35;96064.00;;;25.20
15680;BMP180;15488;48.114;11.532;2023-10-08T05:31:07;96067.00;;;25.20
15680;BMP180;15488;48.114;11.532;2023-10-08T05:33:58;96066.00;;;25.20
15680;BMP180;15488;48.114;11.532;2023-10-08T05:36:42;96074.00;;;25.20
15680;BMP180;15488;48.114;11.532;2023-10-08T05:39:37;96090.00;;;25.30
15680;BMP180;15488;48.114;11.532;2023-10-08T05:42:07;96099.00;;;25.20
15680;BMP180;15488;48.114;11.532;2023-10-08T05:44:44;96112.00;;;25.20
15680;BMP180;15488;48.114;11.532;2023-10-08T05:47:13;96119.00;;;25.30
15680;BMP180;15488;48.114;11.532;2023-10-08T05:50:05;96120.00;;;25.30
15680;BMP180;15488;48.114;11.532;2023-10-08T05:52:51;96130.00;;;25.30
15680;BMP180;15488;48.114;11.532;2023-10-08T05:55:29;96137.00;;;25.30
15680;BMP180;15488;48.114;11.532;2023-10-08T05:58:02;96138.00;;;25.20
15680;BMP180;15488;48.114;11.532;2023-10-08T06:00:40;96145.00;;;25.30
15680;BMP180;15488;48.114;11.532;2023-10-08T06:03:27;96153.00;;;25.30
15680;BMP180;15488;48.114;11.532;2023-10-08T06:06:04;96161.00;;;25.30
15680;BMP180;15488;48.114;11.532;2023-10-08T06:09:06;96167.00;;;25.30
15680;BMP180;15488;48.114;11.532;2023-10-08T06:11:47;96177.00;;;25.30
15680;BMP180;15488;48.114;11.532;2023-10-08T06:14:29;96184.00;;;25.30
15680;BMP180;15488;48.114;11.532;2023-10-08T06:17:19;96186.00;;;25.30
15680;BMP180;15488;48.114;11.532;2023-10-08T06:20:01;96171.00;;;25.20
15680;BMP180;15488;48.114;11.532;2023-10-08T06:22:36;96170.00;;;25.20
15680;BMP180;15488;48.114;11.532;2023-10-08T06:25:06;96177.00;;;25.10
15680;BMP180;15488;48.114;11.532;2023-10-08T06:27:49;96182.00;;;25.10
15680;BMP180;15488;48.114;11.532;2023-10-08T06:30:20;96183.00;;;25.00
15680;BMP180;15488;48.114;11.532;2023-10-08T06:32:47;96188.00;;;24.90
15680;BMP180;15488;48.114;11.532;2023-10-08T06:35:17;96191.00;;;24.90
15680;BMP180;15488;48.114;11.532;2023-10-08T06:37:45;96188.00;;;24.90
15680;BMP180;15488;48.114;11.532;2023-10-08T06:40:16;96191.00;;;24.90
15680;BMP180;15488;48.114;11.532;2023-10-08T06:42:58;96188.00;;;24.90
15680;BMP180;15488;48.114;11.532;2023-10-08T06:45:29;96175.00;;;24.90
15680;BMP180;15488;48.114;11.532;2023-10-08T06:47:59;96180.00;;;24.80
15680;BMP180;15488;48.114;11.532;2023-10-08T06:50:32;96173.00;;;24.70
15680;BMP180;15488;48.114;11.532;2023-10-08T06:53:01;96166.00;;;24.60
15680;BMP180;15488;48.114;11.532;2023-10-08T06:55:34;96170.00;;;24.50
15680;BMP180;15488;48.114;11.532;2023-10-08T06:58:02;96169.00;;;24.40
15680;BMP180;15488;48.114;11.532;2023-10-08T07:00:34;96174.00;;;24.40
15680;BMP180;15488;48.114;11.532;2023-10-08T07:03:13;96181.00;;;24.40
15680;BMP180;15488;48.114;11.532;2023-10-08T07:05:43;96187.00;;;24.40
15680;BMP180;15488;48.114;11.532;2023-10-08T07:08:21;96192.00;;;24.40
15680;BMP180;15488;48.114;11.532;2023-10-08T07:10:51;96189.00;;;24.40
15680;BMP180;15488;48.114;11.532;2023-10-08T07:13:19;96191.00;;;24.40
15680;BMP180;15488;48.114;11.532;2023-10-08T07:15:48;96185.00;;;24.40
15680;BMP180;15488;48.114;11.532;2023-10-08T07:18:16;96183.00;;;24.40
15680;BMP180;15488;48.114;11.532;2023-10-08T07:20:51;96192.00;;;24.40
15680;BMP180;15488;48.114;11.532;2023-10-08T07:23:21;96193.00;;;24.40
15680;BMP180;15488;48.114;11.532;2023-10-08T07:25:54;96187.00;;;24.40
15680;BMP180;15488;48.114;11.532;2023-10-08T07:28:28;96174.00;;;24.40
15680;BMP180;15488;48.114;11.532;2023-10-08T07:30:56;96171.00;;;24.40
15680;BMP180;15488;48.114;11.532;2023-10-08T07:33:24;96167.00;;;24.40
15680;BMP180;15488;48.114;11.532;2023-10-08T07:36:02;96173.00;;;24.40
15680;BMP180;15488;48.114;11.532;2023-10-08T07:38:38;96174.00;;;24.50
15680;BMP180;15488;48.114;11.532;2023-10-08T07:41:09;96163.00;;;24.50
15680;BMP180;15488;48.114;11.532;2023-10-08T07:43:38;96161.00;;;24.50
15680;BMP180;15488;48.114;11.532;2023-10-08T07:46:06;96156.00;;;24.60
15680;BMP180;15488;48.114;11.532;2023-10-08T07:48:33;96155.00;;;24.50
15680;BMP180;15488;48.114;11.532;2023-10-08T07:51:01;96159.00;;;24.50
15680;BMP180;15488;48.114;11.532;2023-10-08T07:53:30;96169.00;;;24.60
15680;BMP180;15488;48.114;11.532;2023-10-08T07:56:05;96174.00;;;24.70
15680;BMP180;15488;48.114;11.532;2023-10-08T07:58:36;96180.00;;;24.60
15680;BMP180;15488;48.114;11.532;2023-10-08T08:01:05;96177.00;;;24.70
15680;BMP180;15488;48.114;11.532;2023-10-08T08:03:33;96197.00;;;24.70
15680;BMP180;15488;48.114;11.532;2023-10-08T08:06:03;96184.00;;;24.80
15680;BMP180;15488;48.114;11.532;2023-10-08T08:08:32;96188.00;;;24.90
15680;BMP180;15488;48.114;11.532;2023-10-08T08:11:02;96189.00;;;24.90
15680;BMP180;15488;48.114;11.532;2023-10-08T08:13:34;96179.00;;;24.90
15680;BMP180;15488;48.114;11.532;2023-10-08T08:16:02;96180.00;;;24.90
15680;BMP180;15488;48.114;11.532;2023-10-08T08:18:42;96182.00;;;25.00
15680;BMP180;15488;48.114;11.532;2023-10-08T08:21:10;96180.00;;;25.00
15680;BMP180;15488;48.114;11.532;2023-10-08T08:23:42;96184.00;;;25.10
15680;BMP180;15488;48.114;11.532;2023-10-08T08:26:14;96178.00;;;25.10
15680;BMP180;15488;48.114;11.532;2023-10-08T08:28:54;96183.00;;;25.10
15680;BMP180;15488;48.114;11.532;2023-10-08T08:31:23;96188.00;;;25.10
15680;BMP180;15488;48.114;11.532;2023-10-08T08:33:51;96187.00;;;25.20
15680;BMP180;15488;48.114;11.532;2023-10-08T08:36:26;96188.00;;;25.20
15680;BMP180;15488;48.114;11.532;2023-10-08T08:38:54;96188.00;;;25.30
15680;BMP180;15488;48.114;11.532;2023-10-08T08:41:21;96197.00;;;25.30
15680;BMP180;15488;48.114;11.532;2023-10-08T08:43:50;96196.00;;;25.40
15680;BMP180;15488;48.114;11.532;2023-10-08T08:46:28;96206.00;;;25.30
15680;BMP180;15488;48.114;11.532;2023-10-08T08:49:00;96206.00;;;25.40
15680;BMP180;15488;48.114;11.532;2023-10-08T08:51:30;96202.00;;;25.50
15680;BMP180;15488;48.114;11.532;2023-10-08T08:53:58;96205.00;;;25.60
15680;BMP180;15488;48.114;11.532;2023-10-08T08:56:28;96206.00;;;25.60
15680;BMP180;15488;48.114;11.532;2023-10-08T08:58:56;96203.00;;;25.60
15680;BMP180;15488;48.114;11.532;2023-10-08T09:01:27;96199.00;;;25.60
15680;BMP180;15488;48.114;11.532;2023-10-08T09:03:59;96190.00;;;25.70
15680;BMP180;15488;48.114;11.532;2023-10-08T09:06:28;96185.00;;;25.70
15680;BMP180;15488;48.114;11.532;2023-10-08T09:08:59;96184.00;;;25.70
15680;BMP180;15488;48.114;11.532;2023-10-08T09:11:39;96178.00;;;25.70
15680;BMP180;15488;48.114;11.532;2023-10-08T09:14:09;96178.00;;;25.80
15680;BMP180;15488;48.114;11.532;2023-10-08T09:16:39;96176.00;;;25.80
15680;BMP180;15488;48.114;11.532;2023-10-08T09:19:07;96181.00;;;25.80
15680;BMP180;15488;48.114;11.532;2023-10-08T09:21:38;96173.00;;;25.70
15680;BMP180;15488;48.114;11.532;2023-10-08T09:24:06;96188.00;;;25.80
15680;BMP180;15488;48.114;11.532;2023-10-08T09:26:36;96187.00;;;25.80
15680;BMP180;15488;48.114;11.532;2023-10-08T09:29:06;96195.00;;;25.80
15680;BMP180;15488;48.114;11.532;2023-10-08T09:31:35;96204.00;;;25.80
15680;BMP180;15488;48.114;11.532;2023-10-08T09:34:04;96210.00;;;25.80
15680;BMP180;15488;48.114;11.532;2023-10-08T09:36:32;96209.00;;;25.80
15680;BMP180;15488;48.114;11.532;2023-10-08T09:39:02;96207.00;;;25.90
15680;BMP180;15488;48.114;11.532;2023-10-08T09:41:31;96208.00;;;25.90
15680;BMP180;15488;48.114;11.532;2023-10-08T09:43:59;96221.00;;;26.00
15680;BMP180;15488;48.114;11.532;2023-10-08T09:46:30;96232.00;;;26.00
15680;BMP180;15488;48.114;11.532;2023-10-08T09:49:00;96230.00;;;26.10
15680;BMP180;15488;48.114;11.532;2023-10-08T09:51:39;96227.00;;;26.20
15680;BMP180;15488;48.114;11.532;2023-10-08T09:54:11;96234.00;;;26.20
15680;BMP180;15488;48.114;11.532;2023-10-08T09:56:40;96237.00;;;26.30
15680;BMP180;15488;48.114;11.532;2023-10-08T09:59:10;96245.00;;;26.30
15680;BMP180;15488;48.114;11.532;2023-10-08T10:01:42;96242.00;;;26.40
15680;BMP180;15488;48.114;11.532;2023-10-08T10:04:11;96241.00;;;26.50
15680;BMP180;15488;48.114;11.532;2023-10-08T10:06:42;96252.00;;;26.50
15680;BMP180;15488;48.114;11.532;2023-10-08T10:09:20;96253.00;;;26.50
15680;BMP180;15488;48.114;11.532;2023-10-08T10:11:48;96267.00;;;26.60
15680;BMP180;15488;48.114;11.532;2023-10-08T10:14:16;96269.00;;;26.70
15680;BMP180;15488;48.114;11.532;2023-10-08T10:16:47;96272.00;;;26.80
15680;BMP180;15488;48.114;11.532;2023-10-08T10:19:17;96271.00;;;26.80
15680;BMP180;15488;48.114;11.532;2023-10-08T10:21:48;96269.00;;;26.80
15680;BMP180;15488;48.114;11.532;2023-10-08T10:24:33;96268.00;;;26.90
15680;BMP180;15488;48.114;11.532;2023-10-08T10:27:12;96270.00;;;26.90
15680;BMP180;15488;48.114;11.532;2023-10-08T10:29:41;96267.00;;;26.90
15680;BMP180;15488;48.114;11.532;2023-10-08T10:32:11;96273.00;;;26.90
15680;BMP180;15488;48.114;11.532;2023-10-08T10:34:41;96275.00;;;26.90
15680;BMP180;15488;48.114;11.532;2023-10-08T10:37:11;96269.00;;;26.80
15680;BMP180;15488;48.114;11.532;2023-10-08T10:39:56;96272.00;;;26.90
15680;BMP180;15488;48.114;11.532;2023-10-08T10:42:26;96274.00;;;26.90
15680;BMP180;15488;48.114;11.532;2023-10-08T10:44:54;96278.00;;;26.90
15680;BMP180;15488;48.114;11.532;2023-10-08T10:47:24;96270.00;;;26.90
15680;BMP180;15488;48.114;11.532;2023-10-08T10:49:54;96278.00;;;26.90
15680;BMP180;15488;48.114;11.532;2023-10-08T10:52:43;96271.00;;;27.00
15680;BMP180;15488;48.114;11.532;2023-10-08T10:55:19;96269.00;;;26.90
15680;BMP180;15488;48.114;11.532;2023-10-08T10:57:50;96259.00;;;26.90
15680;BMP180;15488;48.114;11.532;2023-10-08T11:00:31;96270.00;;;26.90
15680;BMP180;15488;48.114;11.532;2023-10-08T11:03:23;96251.00;;;26.90
15680;BMP180;15488;48.114;11.532;2023-10-08T11:05:53;96253.00;;;26.90
15680;BMP180;15488;48.114;11.532;2023-10-08T11:08:27;96250.00;;;26.90
15680;BMP180;15488;48.114;11.532;2023-10-08T11:11:01;96251.00;;;26.90
15680;BMP180;15488;48.114;11.532;2023-10-08T11:13:33;96239.00;;;26.90
15680;BMP180;15488;48.114;11.532;2023-10-08T11:16:05;96244.00;;;26.90
15680;BMP180;15488;48.114;11.532;2023-10-08T11:18:34;96243.00;;;26.90
15680;BMP180;15488;48.114;11.532;2023-10-08T11:21:08;96240.00;;;26.80
15680;BMP180;15488;48.114;11.532;2023-10-08T11:23:47;96244.00;;;26.90
15680;BMP180;15488;48.114;11.532;2023-10-08T11:26:18;96239.00;;;26.90
15680;BMP180;15488;48.114;11.532;2023-10-08T11:28:48;96231.00;;;26.90
15680;BMP180;15488;48.114;11.532;2023-10-08T11:31:17;96229.00;;;26.80
15680;BMP180;15488;48.114;11.532;2023-10-08T11:33:47;96237.00;;;26.80
15680;BMP180;15488;48.114;11.532;2023-10-08T11:36:20;96249.00;;;26.80
15680;BMP180;15488;48.114;11.532;2023-10-08T11:38:56;96244.00;;;26.70
15680;BMP180;15488;48.114;11.532;2023-10-08T11:41:28;96238.00;;;26.80
15680;BMP180;15488;48.114;11.532;2023-10-08T11:44:10;96240.00;;;26.70
15680;BMP180;15488;48.114;11.532;2023-10-08T11:46:39;96238.00;;;26.70
15680;BMP180;15488;48.114;11.532;2023-10-08T11:49:07;96237.00;;;26.70
15680;BMP180;15488;48.114;11.532;2023-10-08T11:51:44;96240.00;;;26.60
15680;BMP180;15488;48.114;11.532;2023-10-08T11:54:13;96237.00;;;26.60
15680;BMP180;15488;48.114;11.532;2023-10-08T11:56:40;96238.00;;;26.60
15680;BMP180;15488;48.114;11.532;2023-10-08T11:59:08;96237.00;;;26.60
15680;BMP180;15488;48.114;11.532;2023-10-08T12:01:36;96242.00;;;26.60
15680;BMP180;15488;48.114;11.532;2023-10-08T12:04:04;96239.00;;;26.60
15680;BMP180;15488;48.114;11.532;2023-10-08T12:06:38;96238.00;;;26.50
15680;BMP180;15488;48.114;11.532;2023-10-08T12:09:14;96232.00;;;26.50
15680;BMP180;15488;48.114;11.532;2023-10-08T12:11:42;96229.00;;;26.50
15680;BMP180;15488;48.114;11.532;2023-10-08T12:14:10;96227.00;;;26.50
15680;BMP180;15488;48.114;11.532;2023-10-08T12:16:38;96216.00;;;26.50
15680;BMP180;15488;48.114;11.532;2023-10-08T12:19:06;96218.00;;;26.50
15680;BMP180;15488;48.114;11.532;2023-10-08T12:21:42;96216.00;;;26.50
15680;BMP180;15488;48.114;11.532;2023-10-08T12:24:14;96221.00;;;26.50
15680;BMP180;15488;48.114;11.532;2023-10-08T12:26:41;96221.00;;;26.40
15680;BMP180;15488;48.114;11.532;2023-10-08T12:29:11;96230.00;;;26.50
15680;BMP180;15488;48.114;11.532;2023-10-08T12:31:40;96232.00;;;26.50
15680;BMP180;15488;48.114;11.532;2023-10-08T12:34:08;96221.00;;;26.50
15680;BMP180;15488;48.114;11.532;2023-10-08T12:36:38;96222.00;;;26.50
15680;BMP180;15488;48.114;11.532;2023-10-08T12:39:05;96220.00;;;26.50
15680;BMP180;15488;48.114;11.532;2023-10-08T12:41:42;96227.00;;;26.50
15680;BMP180;15488;48.114;11.532;2023-10-08T12:44:10;96228.00;;;26.50
15680;BMP180;15488;48.114;11.532;2023-10-08T12:46:38;96233.00;;;26.50
15680;BMP180;15488;48.114;11.532;2023-10-08T12:49:05;96230.00;;;26.50
15680;BMP180;15488;48.114;11.532;2023-10-08T12:51:33;96221.00;;;26.50
15680;BMP180;15488;48.114;11.532;2023-10-08T12:54:02;96216.00;;;26.60
15680;BMP180;15488;48.114;11.532;2023-10-08T12:56:34;96221.00;;;26.60
15680;BMP180;15488;48.114;11.532;2023-10-08T12:59:12;96215.00;;;26.60
15680;BMP180;15488;48.114;11.532;2023-10-08T13:01:47;96206.00;;;26.60
15680;BMP180;15488;48.114;11.532;2023-10-08T13:04:17;96198.00;;;26.60
15680;BMP180;15488;48.114;11.532;2023-10-08T13:06:52;96192.00;;;26.60
15680;BMP180;15488;48.114;11.532;2023-10-08T13:09:23;96184.00;;;26.60
15680;BMP180;15488;48.114;11.532;2023-10-08T13:11:53;96182.00;;;26.60
15680;BMP180;15488;48.114;11.532;2023-10-08T13:14:22;96174.00;;;26.60
15680;BMP180;15488;48.114;11.532;2023-10-08T13:16:49;96172.00;;;26.60
15680;BMP180;15488;48.114;11.532;2023-10-08T13:19:19;96172.00;;;26.60
15680;BMP180;15488;48.114;11.532;2023-10-08T13:21:49;96174.00;;;26.60
15680;BMP180;15488;48.114;11.532;2023-10-08T13:24:18;96180.00;;;26.60
15680;BMP180;15488;48.114;11.532;2023-10-08T13:26:46;96193.00;;;26.60
15680;BMP180;15488;48.114;11.532;2023-10-08T13:29:14;96185.00;;;26.60
15680;BMP180;15488;48.114;11.532;2023-10-08T13:31:45;96193.00;;;26.70
15680;BMP180;15488;48.114;11.532;2023-10-08T13:34:13;96193.00;;;26.70
15680;BMP180;15488;48.114;11.532;2023-10-08T13:36:42;96186.00;;;26.70
15680;BMP180;15488;48.114;11.532;2023-10-08T13:39:13;96180.00;;;26.70
15680;BMP180;15488;48.114;11.532;2023-10-08T13:41:44;96186.00;;;26.80
15680;BMP180;15488;48.114;11.532;2023-10-08T13:44:14;96189.00;;;26.80
15680;BMP180;15488;48.114;11.532;2023-10-08T13:46:41;96193.00;;;26.80
15680;BMP180;15488;48.114;11.532;2023-10-08T13:49:16;96209.00;;;26.80
15680;BMP180;15488;48.114;11.532;2023-10-08T13:51:44;96216.00;;;26.80
15680;BMP180;15488;48.114;11.532;2023-10-08T13:54:12;96216.00;;;26.80
15680;BMP180;15488;48.114;11.532;2023-10-08T13:56:40;96208.00;;;26.90
15680;BMP180;15488;48.114;11.532;2023-10-08T13:59:14;96210.00;;;26.90
15680;BMP180;15488;48.114;11.532;2023-10-08T14:01:43;96213.00;;;26.90
15680;BMP180;15488;48.114;11.532;2023-10-08T14:04:12;96222.00;;;27.00
15680;BMP180;15488;48.114;11.532;2023-10-08T14:06:44;96212.00;;;27.00
15680;BMP180;15488;48.114;11.532;2023-10-08T14:09:15;96213.00;;;27.00
15680;BMP180;15488;48.114;11.532;2023-10-08T14:11:48;96211.00;;;27.00
15680;BMP180;15488;48.114;11.532;2023-10-08T14:14:18;96213.00;;;27.10
15680;BMP180;15488;48.114;11.532;2023-10-08T14:16:50;96211.00;;;27.10
15680;BMP180;15488;48.114;11.532;2023-10-08T14:19:19;96209.00;;;27.10
15680;BMP180;15488;48.114;11.532;2023-10-08T14:21:55;96206.00;;;27.10
15680;BMP180;15488;48.114;11.532;2023-10-08T14:24:29;96206.00;;;27.10
15680;BMP180;15488;48.114;11.532;2023-10-08T14:27:01;96205.00;;;27.10